sensor_id;sensor_type;location;lat;lon;timestamp;P1;P2;P0
44045;PMS7003;29709;52.396;16.796;2024-02-26T00:00:02;37;26;17
44045;PMS7003;29709;52.396;16.796;2024-02-26T00:03:16;32;27;19
44045;PMS7003;29709;52.396;16.796;2024-02-26T00:06:31;39;31;20
44045;PMS7003;29709;52.396;16.796;2024-02-26T00:09:45;41;30;19
44045;PMS7003;29709;52.396;16.796;2024-02-26T00:12:58;41;32;21
44045;PMS7003;29709;52.396;16.796;2024-02-26T00:16:12;34;28;18
44045;PMS7003;29709;52.396;16.796;2024-02-26T00:19:28;31;26;17
44045;PMS7003;29709;52.396;16.796;2024-02-26T00:22:41;34;28;18
44045;PMS7003;29709;52.396;16.796;2024-02-26T00:25:55;33;26;16
44045;PMS7003;29709;52.396;16.796;2024-02-26T00:29:09;32;23;16
44045;PMS7003;29709;52.396;16.796;2024-02-26T00:32:22;34;27;18
44045;PMS7003;29709;52.396;16.796;2024-02-26T00:35:35;31;26;17
44045;PMS7003;29709;52.396;16.796;2024-02-26T00:38:49;34;27;18
44045;PMS7003;29709;52.396;16.796;2024-02-26T00:42:05;20;19;11
44045;PMS7003;29709;52.396;16.796;2024-02-26T00:45:19;32;27;18
44045;PMS7003;29709;52.396;16.796;2024-02-26T00:48:32;30;25;16
44045;PMS7003;29709;52.396;16.796;2024-02-26T00:51:45;30;24;16
44045;PMS7003;29709;52.396;16.796;2024-02-26T00:54:58;27;25;14
44045;PMS7003;29709;52.396;16.796;2024-02-26T00:58:14;36;27;18
44045;PMS7003;29709;52.396;16.796;2024-02-26T01:01:27;36;29;17
44045;PMS7003;29709;52.396;16.796;2024-02-26T01:04:40;34;27;17
44045;PMS7003;29709;52.396;16.796;2024-02-26T01:07:53;32;27;18
44045;PMS7003;29709;52.396;16.796;2024-02-26T01:11:07;32;27;18
44045;PMS7003;29709;52.396;16.796;2024-02-26T01:14:20;37;29;19
44045;PMS7003;29709;52.396;16.796;2024-02-26T01:17:33;39;32;21
44045;PMS7003;29709;52.396;16.796;2024-02-26T01:20:47;32;26;17
44045;PMS7003;29709;52.396;16.796;2024-02-26T01:24:01;38;27;16
44045;PMS7003;29709;52.396;16.796;2024-02-26T01:27:17;42;33;19
44045;PMS7003;29709;52.396;16.796;2024-02-26T01:30:31;31;25;12
44045;PMS7003;29709;52.396;16.796;2024-02-26T01:33:44;44;34;22
44045;PMS7003;29709;52.396;16.796;2024-02-26T01:36:58;43;35;23
44045;PMS7003;29709;52.396;16.796;2024-02-26T01:40:11;40;31;21
44045;PMS7003;29709;52.396;16.796;2024-02-26T01:43:33;43;34;22
44045;PMS7003;29709;52.396;16.796;2024-02-26T01:46:46;8;6;3
44045;PMS7003;29709;52.396;16.796;2024-02-26T01:50:00;38;31;21
44045;PMS7003;29709;52.396;16.796;2024-02-26T01:53:15;40;32;20
44045;PMS7003;29709;52.396;16.796;2024-02-26T01:56:29;39;32;21
44045;PMS7003;29709;52.396;16.796;2024-02-26T01:59:44;41;33;21
44045;PMS7003;29709;52.396;16.796;2024-02-26T02:02:58;39;31;20
44045;PMS7003;29709;52.396;16.796;2024-02-26T02:06:11;27;21;9
44045;PMS7003;29709;52.396;16.796;2024-02-26T02:09:26;35;28;19
44045;PMS7003;29709;52.396;16.796;2024-02-26T02:12:40;36;29;19
44045;PMS7003;29709;52.396;16.796;2024-02-26T02:15:54;44;34;23
44045;PMS7003;29709;52.396;16.796;2024-02-26T02:19:07;48;38;25
44045;PMS7003;29709;52.396;16.796;2024-02-26T02:22:20;45;34;22
44045;PMS7003;29709;52.396;16.796;2024-02-26T02:25:34;38;28;18
44045;PMS7003;29709;52.396;16.796;2024-02-26T02:28:47;44;34;24
44045;PMS7003;29709;52.396;16.796;2024-02-26T02:32:02;44;34;22
44045;PMS7003;29709;52.396;16.796;2024-02-26T02:35:17;46;36;23
44045;PMS7003;29709;52.396;16.796;2024-02-26T02:38:30;45;34;22
44045;PMS7003;29709;52.396;16.796;2024-02-26T02:41:46;38;30;21
44045;PMS7003;29709;52.396;16.796;2024-02-26T02:44:59;41;32;22
44045;PMS7003;29709;52.396;16.796;2024-02-26T02:48:14;40;32;20
44045;PMS7003;29709;52.396;16.796;2024-02-26T02:51:27;35;28;19
44045;PMS7003;29709;52.396;16.796;2024-02-26T02:54:41;29;24;15
44045;PMS7003;29709;52.396;16.796;2024-02-26T02:57:55;28;25;16
44045;PMS7003;29709;52.396;16.796;2024-02-26T03:01:09;19;13;5
44045;PMS7003;29709;52.396;16.796;2024-02-26T03:04:22;30;25;17
44045;PMS7003;29709;52.396;16.796;2024-02-26T03:07:36;24;20;13
44045;PMS7003;29709;52.396;16.796;2024-02-26T03:10:49;29;23;15
44045;PMS7003;29709;52.396;16.796;2024-02-26T03:14:02;27;23;16
44045;PMS7003;29709;52.396;16.796;2024-02-26T03:20:58;27;24;17
44045;PMS7003;29709;52.396;16.796;2024-02-26T03:24:11;27;21;17
44045;PMS7003;29709;52.396;16.796;2024-02-26T03:27:25;29;24;16
44045;PMS7003;29709;52.396;16.796;2024-02-26T03:30:39;27;24;17
44045;PMS7003;29709;52.396;16.796;2024-02-26T03:33:52;32;27;18
44045;PMS7003;29709;52.396;16.796;2024-02-26T03:37:06;32;26;17
44045;PMS7003;29709;52.396;16.796;2024-02-26T03:40:24;26;22;14
44045;PMS7003;29709;52.396;16.796;2024-02-26T03:43:39;30;26;17
44045;PMS7003;29709;52.396;16.796;2024-02-26T03:46:52;30;25;17
44045;PMS7003;29709;52.396;16.796;2024-02-26T03:50:06;32;26;17
44045;PMS7003;29709;52.396;16.796;2024-02-26T03:53:20;13;12;7
44045;PMS7003;29709;52.396;16.796;2024-02-26T03:56:33;31;26;18
44045;PMS7003;29709;52.396;16.796;2024-02-26T03:59:47;28;24;16
44045;PMS7003;29709;52.396;16.796;2024-02-26T04:03:00;30;25;18
44045;PMS7003;29709;52.396;16.796;2024-02-26T04:06:13;33;28;18
44045;PMS7003;29709;52.396;16.796;2024-02-26T04:09:33;31;26;17
44045;PMS7003;29709;52.396;16.796;2024-02-26T04:12:47;28;25;17
44045;PMS7003;29709;52.396;16.796;2024-02-26T04:16:00;34;26;18
44045;PMS7003;29709;52.396;16.796;2024-02-26T04:19:19;30;25;17
44045;PMS7003;29709;52.396;16.796;2024-02-26T04:22:32;23;20;13
44045;PMS7003;29709;52.396;16.796;2024-02-26T04:25:47;24;20;13
44045;PMS7003;29709;52.396;16.796;2024-02-26T04:29:00;7;7;5
44045;PMS7003;29709;52.396;16.796;2024-02-26T04:32:13;30;23;15
44045;PMS7003;29709;52.396;16.796;2024-02-26T04:35:27;23;22;15
44045;PMS7003;29709;52.396;16.796;2024-02-26T04:38:40;29;25;17
44045;PMS7003;29709;52.396;16.796;2024-02-26T04:41:53;15;13;9
44045;PMS7003;29709;52.396;16.796;2024-02-26T04:45:06;22;21;14
44045;PMS7003;29709;52.396;16.796;2024-02-26T04:48:21;28;22;15
44045;PMS7003;29709;52.396;16.796;2024-02-26T04:51:35;21;19;13
44045;PMS7003;29709;52.396;16.796;2024-02-26T04:54:50;27;21;15
44045;PMS7003;29709;52.396;16.796;2024-02-26T04:58:03;21;17;12
44045;PMS7003;29709;52.396;16.796;2024-02-26T05:01:16;24;21;14
44045;PMS7003;29709;52.396;16.796;2024-02-26T05:04:31;23;21;15
44045;PMS7003;29709;52.396;16.796;2024-02-26T05:07:44;25;22;14
44045;PMS7003;29709;52.396;16.796;2024-02-26T05:10:58;26;21;15
44045;PMS7003;29709;52.396;16.796;2024-02-26T05:14:11;26;21;15
44045;PMS7003;29709;52.396;16.796;2024-02-26T05:17:24;36;26;17
44045;PMS7003;29709;52.396;16.796;2024-02-26T05:20:37;26;23;15
44045;PMS7003;29709;52.396;16.796;2024-02-26T05:23:51;29;25;16
44045;PMS7003;29709;52.396;16.796;2024-02-26T05:27:04;21;16;10
44045;PMS7003;29709;52.396;16.796;2024-02-26T05:30:17;23;19;11
44045;PMS7003;29709;52.396;16.796;2024-02-26T05:33:30;24;23;16
44045;PMS7003;29709;52.396;16.796;2024-02-26T05:36:43;22;19;13
44045;PMS7003;29709;52.396;16.796;2024-02-26T05:39:57;25;21;14
44045;PMS7003;29709;52.396;16.796;2024-02-26T05:43:11;26;21;14
44045;PMS7003;29709;52.396;16.796;2024-02-26T05:46:24;26;23;16
44045;PMS7003;29709;52.396;16.796;2024-02-26T05:49:39;20;18;14
44045;PMS7003;29709;52.396;16.796;2024-02-26T05:52:52;36;29;19
44045;PMS7003;29709;52.396;16.796;2024-02-26T05:56:06;33;26;18
44045;PMS7003;29709;52.396;16.796;2024-02-26T05:59:19;32;25;18
44045;PMS7003;29709;52.396;16.796;2024-02-26T06:02:32;30;27;18
44045;PMS7003;29709;52.396;16.796;2024-02-26T06:05:45;29;24;16
44045;PMS7003;29709;52.396;16.796;2024-02-26T06:08:59;31;24;17
44045;PMS7003;29709;52.396;16.796;2024-02-26T06:12:12;28;22;16
44045;PMS7003;29709;52.396;16.796;2024-02-26T06:15:25;27;23;16
44045;PMS7003;29709;52.396;16.796;2024-02-26T06:18:38;28;24;15
44045;PMS7003;29709;52.396;16.796;2024-02-26T06:21:52;32;24;16
44045;PMS7003;29709;52.396;16.796;2024-02-26T06:25:05;26;21;15
44045;PMS7003;29709;52.396;16.796;2024-02-26T06:28:19;29;25;17
44045;PMS7003;29709;52.396;16.796;2024-02-26T06:31:32;14;10;2
44045;PMS7003;29709;52.396;16.796;2024-02-26T06:34:45;21;19;13
44045;PMS7003;29709;52.396;16.796;2024-02-26T06:37:58;27;23;15
44045;PMS7003;29709;52.396;16.796;2024-02-26T06:41:12;30;24;15
44045;PMS7003;29709;52.396;16.796;2024-02-26T06:44:25;24;22;14
44045;PMS7003;29709;52.396;16.796;2024-02-26T06:47:44;29;24;17
44045;PMS7003;29709;52.396;16.796;2024-02-26T06:50:57;31;26;18
44045;PMS7003;29709;52.396;16.796;2024-02-26T06:54:10;22;18;13
44045;PMS7003;29709;52.396;16.796;2024-02-26T06:57:23;28;26;17
44045;PMS7003;29709;52.396;16.796;2024-02-26T07:00:37;36;29;19
44045;PMS7003;29709;52.396;16.796;2024-02-26T07:03:50;31;26;18
44045;PMS7003;29709;52.396;16.796;2024-02-26T07:07:03;24;21;10
44045;PMS7003;29709;52.396;16.796;2024-02-26T07:10:16;34;26;18
44045;PMS7003;29709;52.396;16.796;2024-02-26T07:13:30;20;15;10
44045;PMS7003;29709;52.396;16.796;2024-02-26T07:16:43;31;23;15
44045;PMS7003;29709;52.396;16.796;2024-02-26T07:19:56;29;25;16
44045;PMS7003;29709;52.396;16.796;2024-02-26T07:23:09;31;24;17
44045;PMS7003;29709;52.396;16.796;2024-02-26T07:26:23;8;4;2
44045;PMS7003;29709;52.396;16.796;2024-02-26T07:29:38;27;24;15
44045;PMS7003;29709;52.396;16.796;2024-02-26T07:32:51;26;22;13
44045;PMS7003;29709;52.396;16.796;2024-02-26T07:36:05;31;25;17
44045;PMS7003;29709;52.396;16.796;2024-02-26T07:39:18;32;25;16
44045;PMS7003;29709;52.396;16.796;2024-02-26T07:42:32;29;24;17
44045;PMS7003;29709;52.396;16.796;2024-02-26T07:45:45;29;25;17
44045;PMS7003;29709;52.396;16.796;2024-02-26T07:48:58;25;22;15
44045;PMS7003;29709;52.396;16.796;2024-02-26T07:52:11;21;19;13
44045;PMS7003;29709;52.396;16.796;2024-02-26T07:55:26;26;22;14
44045;PMS7003;29709;52.396;16.796;2024-02-26T07:58:39;23;21;15
44045;PMS7003;29709;52.396;16.796;2024-02-26T08:01:53;22;17;12
44045;PMS7003;29709;52.396;16.796;2024-02-26T08:05:06;16;16;12
44045;PMS7003;29709;52.396;16.796;2024-02-26T08:08:19;25;22;14
44045;PMS7003;29709;52.396;16.796;2024-02-26T08:11:33;19;17;11
44045;PMS7003;29709;52.396;16.796;2024-02-26T08:14:46;15;13;8
44045;PMS7003;29709;52.396;16.796;2024-02-26T08:17:59;15;12;9
44045;PMS7003;29709;52.396;16.796;2024-02-26T08:21:16;17;15;10
44045;PMS7003;29709;52.396;16.796;2024-02-26T08:24:29;13;9;4
44045;PMS7003;29709;52.396;16.796;2024-02-26T08:27:42;16;13;11
44045;PMS7003;29709;52.396;16.796;2024-02-26T08:30:55;15;15;9
44045;PMS7003;29709;52.396;16.796;2024-02-26T08:34:08;15;12;8
44045;PMS7003;29709;52.396;16.796;2024-02-26T08:37:22;13;12;9
44045;PMS7003;29709;52.396;16.796;2024-02-26T08:40:35;12;10;7
44045;PMS7003;29709;52.396;16.796;2024-02-26T08:43:48;15;13;9
44045;PMS7003;29709;52.396;16.796;2024-02-26T08:47:02;15;11;8
44045;PMS7003;29709;52.396;16.796;2024-02-26T08:50:15;13;11;8
44045;PMS7003;29709;52.396;16.796;2024-02-26T08:53:28;13;12;8
44045;PMS7003;29709;52.396;16.796;2024-02-26T08:56:42;14;10;7
44045;PMS7003;29709;52.396;16.796;2024-02-26T08:59:55;11;8;5
44045;PMS7003;29709;52.396;16.796;2024-02-26T09:03:08;12;10;4
44045;PMS7003;29709;52.396;16.796;2024-02-26T09:06:22;10;9;6
44045;PMS7003;29709;52.396;16.796;2024-02-26T09:09:35;12;11;8
44045;PMS7003;29709;52.396;16.796;2024-02-26T09:12:49;11;7;6
44045;PMS7003;29709;52.396;16.796;2024-02-26T09:16:02;10;7;6
44045;PMS7003;29709;52.396;16.796;2024-02-26T09:19:15;7;6;4
44045;PMS7003;29709;52.396;16.796;2024-02-26T09:22:29;9;8;6
44045;PMS7003;29709;52.396;16.796;2024-02-26T09:25:42;11;7;5
44045;PMS7003;29709;52.396;16.796;2024-02-26T09:28:55;12;8;5
44045;PMS7003;29709;52.396;16.796;2024-02-26T09:32:09;9;7;5
44045;PMS7003;29709;52.396;16.796;2024-02-26T09:35:22;8;6;4
44045;PMS7003;29709;52.396;16.796;2024-02-26T09:38:35;9;8;6
44045;PMS7003;29709;52.396;16.796;2024-02-26T09:41:52;9;9;5
44045;PMS7003;29709;52.396;16.796;2024-02-26T09:45:05;8;6;4
44045;PMS7003;29709;52.396;16.796;2024-02-26T09:48:24;9;8;5
44045;PMS7003;29709;52.396;16.796;2024-02-26T09:51:38;7;6;5
44045;PMS7003;29709;52.396;16.796;2024-02-26T09:54:52;13;10;6
44045;PMS7003;29709;52.396;16.796;2024-02-26T09:58:05;13;10;7
44045;PMS7003;29709;52.396;16.796;2024-02-26T10:01:20;7;6;4
44045;PMS7003;29709;52.396;16.796;2024-02-26T10:04:34;10;7;6
44045;PMS7003;29709;52.396;16.796;2024-02-26T10:07:48;8;6;5
44045;PMS7003;29709;52.396;16.796;2024-02-26T10:11:01;10;9;6
44045;PMS7003;29709;52.396;16.796;2024-02-26T10:14:15;12;10;8
44045;PMS7003;29709;52.396;16.796;2024-02-26T10:17:29;7;6;5
44045;PMS7003;29709;52.396;16.796;2024-02-26T10:20:58;10;8;5
44045;PMS7003;29709;52.396;16.796;2024-02-26T10:24:16;7;6;5
44045;PMS7003;29709;52.396;16.796;2024-02-26T10:27:27;5;5;4
44045;PMS7003;29709;52.396;16.796;2024-02-26T10:30:41;6;4;3
44045;PMS7003;29709;52.396;16.796;2024-02-26T10:33:55;6;5;4
44045;PMS7003;29709;52.396;16.796;2024-02-26T10:37:09;6;6;5
44045;PMS7003;29709;52.396;16.796;2024-02-26T10:40:22;9;8;6
44045;PMS7003;29709;52.396;16.796;2024-02-26T10:43:36;7;7;4
44045;PMS7003;29709;52.396;16.796;2024-02-26T10:46:49;9;6;5
44045;PMS7003;29709;52.396;16.796;2024-02-26T10:50:05;7;5;4
44045;PMS7003;29709;52.396;16.796;2024-02-26T10:53:22;7;6;5
44045;PMS7003;29709;52.396;16.796;2024-02-26T10:56:37;9;8;7
44045;PMS7003;29709;52.396;16.796;2024-02-26T10:59:56;10;7;5
44045;PMS7003;29709;52.396;16.796;2024-02-26T11:03:09;8;7;5
44045;PMS7003;29709;52.396;16.796;2024-02-26T11:06:28;7;6;5
44045;PMS7003;29709;52.396;16.796;2024-02-26T11:09:42;7;6;4
44045;PMS7003;29709;52.396;16.796;2024-02-26T11:13:04;7;6;4
44045;PMS7003;29709;52.396;16.796;2024-02-26T11:16:20;6;6;4
44045;PMS7003;29709;52.396;16.796;2024-02-26T11:19:35;7;7;6
44045;PMS7003;29709;52.396;16.796;2024-02-26T11:22:50;10;7;6
44045;PMS7003;29709;52.396;16.796;2024-02-26T11:26:04;8;7;5
44045;PMS7003;29709;52.396;16.796;2024-02-26T11:29:21;6;6;5
44045;PMS7003;29709;52.396;16.796;2024-02-26T11:32:36;7;4;4
44045;PMS7003;29709;52.396;16.796;2024-02-26T11:35:50;8;7;6
44045;PMS7003;29709;52.396;16.796;2024-02-26T11:39:04;10;8;6
44045;PMS7003;29709;52.396;16.796;2024-02-26T11:42:17;9;6;4
44045;PMS7003;29709;52.396;16.796;2024-02-26T11:49:02;7;4;4
44045;PMS7003;29709;52.396;16.796;2024-02-26T11:52:21;5;4;3
44045;PMS7003;29709;52.396;16.796;2024-02-26T11:55:34;7;6;5
44045;PMS7003;29709;52.396;16.796;2024-02-26T11:58:48;7;6;4
44045;PMS7003;29709;52.396;16.796;2024-02-26T12:02:06;8;7;6
44045;PMS7003;29709;52.396;16.796;2024-02-26T12:05:21;6;4;3
44045;PMS7003;29709;52.396;16.796;2024-02-26T12:08:41;0;0;0
44045;PMS7003;29709;52.396;16.796;2024-02-26T12:11:57;5;5;4
44045;PMS7003;29709;52.396;16.796;2024-02-26T12:15:10;8;6;4
44045;PMS7003;29709;52.396;16.796;2024-02-26T12:18:25;8;7;4
44045;PMS7003;29709;52.396;16.796;2024-02-26T12:21:42;9;8;6
44045;PMS7003;29709;52.396;16.796;2024-02-26T12:24:59;7;7;5
44045;PMS7003;29709;52.396;16.796;2024-02-26T12:28:15;6;5;4
44045;PMS7003;29709;52.396;16.796;2024-02-26T12:31:29;4;4;3
44045;PMS7003;29709;52.396;16.796;2024-02-26T12:34:43;5;5;4
44045;PMS7003;29709;52.396;16.796;2024-02-26T12:37:58;8;7;6
44045;PMS7003;29709;52.396;16.796;2024-02-26T12:41:13;9;6;4
44045;PMS7003;29709;52.396;16.796;2024-02-26T12:44:27;7;5;3
44045;PMS7003;29709;52.396;16.796;2024-02-26T12:47:41;3;2;0
44045;PMS7003;29709;52.396;16.796;2024-02-26T12:50:55;5;5;3
44045;PMS7003;29709;52.396;16.796;2024-02-26T12:54:09;10;8;6
44045;PMS7003;29709;52.396;16.796;2024-02-26T12:57:22;8;5;4
44045;PMS7003;29709;52.396;16.796;2024-02-26T13:00:37;7;5;4
44045;PMS7003;29709;52.396;16.796;2024-02-26T13:03:51;7;5;4
44045;PMS7003;29709;52.396;16.796;2024-02-26T13:07:06;7;5;4
44045;PMS7003;29709;52.396;16.796;2024-02-26T13:10:19;5;3;3
44045;PMS7003;29709;52.396;16.796;2024-02-26T13:13:33;5;4;3
44045;PMS7003;29709;52.396;16.796;2024-02-26T13:20:11;5;4;3
44045;PMS7003;29709;52.396;16.796;2024-02-26T13:23:24;5;3;2
44045;PMS7003;29709;52.396;16.796;2024-02-26T13:26:38;1;1;1
44045;PMS7003;29709;52.396;16.796;2024-02-26T13:33:18;4;4;3
44045;PMS7003;29709;52.396;16.796;2024-02-26T13:36:32;4;3;3
44045;PMS7003;29709;52.396;16.796;2024-02-26T13:39:45;8;5;4
44045;PMS7003;29709;52.396;16.796;2024-02-26T13:42:58;4;4;4
44045;PMS7003;29709;52.396;16.796;2024-02-26T13:46:12;7;4;2
44045;PMS7003;29709;52.396;16.796;2024-02-26T13:49:28;5;5;4
44045;PMS7003;29709;52.396;16.796;2024-02-26T13:52:41;3;3;2
44045;PMS7003;29709;52.396;16.796;2024-02-26T13:55:56;9;5;5
44045;PMS7003;29709;52.396;16.796;2024-02-26T13:59:13;4;4;2
44045;PMS7003;29709;52.396;16.796;2024-02-26T14:02:26;6;4;3
44045;PMS7003;29709;52.396;16.796;2024-02-26T14:05:39;9;5;3
44045;PMS7003;29709;52.396;16.796;2024-02-26T14:08:53;6;5;4
44045;PMS7003;29709;52.396;16.796;2024-02-26T14:12:41;5;4;3
44045;PMS7003;29709;52.396;16.796;2024-02-26T14:15:54;5;4;2
44045;PMS7003;29709;52.396;16.796;2024-02-26T14:19:08;6;5;4
44045;PMS7003;29709;52.396;16.796;2024-02-26T14:22:22;6;5;4
44045;PMS7003;29709;52.396;16.796;2024-02-26T14:25:35;8;6;5
44045;PMS7003;29709;52.396;16.796;2024-02-26T14:28:49;4;4;3
44045;PMS7003;29709;52.396;16.796;2024-02-26T14:32:03;8;6;6
44045;PMS7003;29709;52.396;16.796;2024-02-26T14:35:17;15;15;11
44045;PMS7003;29709;52.396;16.796;2024-02-26T14:38:30;4;4;3
44045;PMS7003;29709;52.396;16.796;2024-02-26T14:41:43;9;7;5
44045;PMS7003;29709;52.396;16.796;2024-02-26T14:44:57;12;10;9
44045;PMS7003;29709;52.396;16.796;2024-02-26T14:48:10;11;8;6
44045;PMS7003;29709;52.396;16.796;2024-02-26T14:51:24;11;9;7
44045;PMS7003;29709;52.396;16.796;2024-02-26T14:54:37;12;11;7
44045;PMS7003;29709;52.396;16.796;2024-02-26T14:57:51;8;5;3
44045;PMS7003;29709;52.396;16.796;2024-02-26T15:01:05;7;6;4
44045;PMS7003;29709;52.396;16.796;2024-02-26T15:04:18;8;5;4
44045;PMS7003;29709;52.396;16.796;2024-02-26T15:07:31;7;7;5
44045;PMS7003;29709;52.396;16.796;2024-02-26T15:10:44;9;6;5
44045;PMS7003;29709;52.396;16.796;2024-02-26T15:14:01;7;6;5
44045;PMS7003;29709;52.396;16.796;2024-02-26T15:17:14;8;7;4
44045;PMS7003;29709;52.396;16.796;2024-02-26T15:20:27;8;7;5
44045;PMS7003;29709;52.396;16.796;2024-02-26T15:23:44;7;6;5
44045;PMS7003;29709;52.396;16.796;2024-02-26T15:26:57;8;6;4
44045;PMS7003;29709;52.396;16.796;2024-02-26T15:30:11;7;5;4
44045;PMS7003;29709;52.396;16.796;2024-02-26T15:33:25;6;3;1
44045;PMS7003;29709;52.396;16.796;2024-02-26T15:36:38;9;7;5
44045;PMS7003;29709;52.396;16.796;2024-02-26T15:39:51;5;5;4
44045;PMS7003;29709;52.396;16.796;2024-02-26T15:43:05;7;7;6
44045;PMS7003;29709;52.396;16.796;2024-02-26T15:46:18;4;2;0
44045;PMS7003;29709;52.396;16.796;2024-02-26T15:49:32;13;9;6
44045;PMS7003;29709;52.396;16.796;2024-02-26T15:52:46;7;6;4
44045;PMS7003;29709;52.396;16.796;2024-02-26T15:55:59;6;6;5
44045;PMS7003;29709;52.396;16.796;2024-02-26T15:59:13;9;9;6
44045;PMS7003;29709;52.396;16.796;2024-02-26T16:02:26;7;6;5
44045;PMS7003;29709;52.396;16.796;2024-02-26T16:05:40;12;8;6
44045;PMS7003;29709;52.396;16.796;2024-02-26T16:08:54;14;12;9
44045;PMS7003;29709;52.396;16.796;2024-02-26T16:12:15;19;15;11
44045;PMS7003;29709;52.396;16.796;2024-02-26T16:15:36;22;15;10
44045;PMS7003;29709;52.396;16.796;2024-02-26T16:18:50;15;13;10
44045;PMS7003;29709;52.396;16.796;2024-02-26T16:22:03;29;23;17
44045;PMS7003;29709;52.396;16.796;2024-02-26T16:25:17;15;11;9
44045;PMS7003;29709;52.396;16.796;2024-02-26T16:28:33;12;10;7
44045;PMS7003;29709;52.396;16.796;2024-02-26T16:35:30;7;5;5
44045;PMS7003;29709;52.396;16.796;2024-02-26T16:38:45;8;8;6
44045;PMS7003;29709;52.396;16.796;2024-02-26T16:41:58;6;5;4
44045;PMS7003;29709;52.396;16.796;2024-02-26T16:45:12;10;8;7
44045;PMS7003;29709;52.396;16.796;2024-02-26T16:48:26;14;11;8
44045;PMS7003;29709;52.396;16.796;2024-02-26T16:51:39;14;12;8
44045;PMS7003;29709;52.396;16.796;2024-02-26T16:54:54;10;8;7
44045;PMS7003;29709;52.396;16.796;2024-02-26T16:58:08;6;6;4
44045;PMS7003;29709;52.396;16.796;2024-02-26T17:01:21;8;7;6
44045;PMS7003;29709;52.396;16.796;2024-02-26T17:04:35;15;10;7
44045;PMS7003;29709;52.396;16.796;2024-02-26T17:07:48;2;0;0
44045;PMS7003;29709;52.396;16.796;2024-02-26T17:11:01;7;6;5
44045;PMS7003;29709;52.396;16.796;2024-02-26T17:14:17;6;5;4
44045;PMS7003;29709;52.396;16.796;2024-02-26T17:17:31;7;4;3
44045;PMS7003;29709;52.396;16.796;2024-02-26T17:20:44;7;7;5
44045;PMS7003;29709;52.396;16.796;2024-02-26T17:23:57;6;6;5
44045;PMS7003;29709;52.396;16.796;2024-02-26T17:27:13;8;6;4
44045;PMS7003;29709;52.396;16.796;2024-02-26T17:30:26;8;8;6
44045;PMS7003;29709;52.396;16.796;2024-02-26T17:33:39;10;8;6
44045;PMS7003;29709;52.396;16.796;2024-02-26T17:36:53;9;9;6
44045;PMS7003;29709;52.396;16.796;2024-02-26T17:40:06;11;10;7
44045;PMS7003;29709;52.396;16.796;2024-02-26T17:43:21;13;12;8
44045;PMS7003;29709;52.396;16.796;2024-02-26T17:46:34;15;13;10
44045;PMS7003;29709;52.396;16.796;2024-02-26T17:49:47;13;11;9
44045;PMS7003;29709;52.396;16.796;2024-02-26T17:53:01;17;13;9
44045;PMS7003;29709;52.396;16.796;2024-02-26T17:56:15;17;13;10
44045;PMS7003;29709;52.396;16.796;2024-02-26T17:59:35;12;10;8
44045;PMS7003;29709;52.396;16.796;2024-02-26T18:02:48;14;11;7
44045;PMS7003;29709;52.396;16.796;2024-02-26T18:06:02;16;10;7
44045;PMS7003;29709;52.396;16.796;2024-02-26T18:09:16;9;8;6
44045;PMS7003;29709;52.396;16.796;2024-02-26T18:12:30;11;10;8
44045;PMS7003;29709;52.396;16.796;2024-02-26T18:15:43;15;13;9
44045;PMS7003;29709;52.396;16.796;2024-02-26T18:18:57;12;11;7
44045;PMS7003;29709;52.396;16.796;2024-02-26T18:22:10;12;10;7
44045;PMS7003;29709;52.396;16.796;2024-02-26T18:25:23;9;8;6
44045;PMS7003;29709;52.396;16.796;2024-02-26T18:28:37;8;7;5
44045;PMS7003;29709;52.396;16.796;2024-02-26T18:31:51;11;8;6
44045;PMS7003;29709;52.396;16.796;2024-02-26T18:35:04;13;9;7
44045;PMS7003;29709;52.396;16.796;2024-02-26T18:38:17;13;11;7
44045;PMS7003;29709;52.396;16.796;2024-02-26T18:41:30;12;10;8
44045;PMS7003;29709;52.396;16.796;2024-02-26T18:44:44;14;13;9
44045;PMS7003;29709;52.396;16.796;2024-02-26T18:47:58;12;9;6
44045;PMS7003;29709;52.396;16.796;2024-02-26T18:51:11;5;5;3
44045;PMS7003;29709;52.396;16.796;2024-02-26T18:54:24;13;11;8
44045;PMS7003;29709;52.396;16.796;2024-02-26T18:57:37;10;8;6
44045;PMS7003;29709;52.396;16.796;2024-02-26T19:00:52;6;6;5
44045;PMS7003;29709;52.396;16.796;2024-02-26T19:04:05;11;10;8
44045;PMS7003;29709;52.396;16.796;2024-02-26T19:07:19;11;10;7
44045;PMS7003;29709;52.396;16.796;2024-02-26T19:10:32;12;10;7
44045;PMS7003;29709;52.396;16.796;2024-02-26T19:13:46;13;9;7
44045;PMS7003;29709;52.396;16.796;2024-02-26T19:16:59;10;7;6
44045;PMS7003;29709;52.396;16.796;2024-02-26T19:20:12;11;9;7
44045;PMS7003;29709;52.396;16.796;2024-02-26T19:23:29;16;14;10
44045;PMS7003;29709;52.396;16.796;2024-02-26T19:26:45;10;9;6
44045;PMS7003;29709;52.396;16.796;2024-02-26T19:30:00;11;8;6
44045;PMS7003;29709;52.396;16.796;2024-02-26T19:33:16;11;8;6
44045;PMS7003;29709;52.396;16.796;2024-02-26T19:36:30;11;9;7
44045;PMS7003;29709;52.396;16.796;2024-02-26T19:39:43;14;11;9
44045;PMS7003;29709;52.396;16.796;2024-02-26T19:42:56;17;15;12
44045;PMS7003;29709;52.396;16.796;2024-02-26T19:46:10;14;13;9
44045;PMS7003;29709;52.396;16.796;2024-02-26T19:49:23;18;16;11
44045;PMS7003;29709;52.396;16.796;2024-02-26T19:52:36;12;10;8
44045;PMS7003;29709;52.396;16.796;2024-02-26T19:55:49;10;8;6
44045;PMS7003;29709;52.396;16.796;2024-02-26T19:59:03;7;4;2
44045;PMS7003;29709;52.396;16.796;2024-02-26T20:02:16;9;8;7
44045;PMS7003;29709;52.396;16.796;2024-02-26T20:05:32;10;9;7
44045;PMS7003;29709;52.396;16.796;2024-02-26T20:08:45;8;7;5
44045;PMS7003;29709;52.396;16.796;2024-02-26T20:11:59;8;7;5
44045;PMS7003;29709;52.396;16.796;2024-02-26T20:15:14;9;7;6
44045;PMS7003;29709;52.396;16.796;2024-02-26T20:18:28;12;8;6
44045;PMS7003;29709;52.396;16.796;2024-02-26T20:21:41;1;1;0
44045;PMS7003;29709;52.396;16.796;2024-02-26T20:24:54;9;8;5
44045;PMS7003;29709;52.396;16.796;2024-02-26T20:28:08;10;8;6
44045;PMS7003;29709;52.396;16.796;2024-02-26T20:31:21;14;9;6
44045;PMS7003;29709;52.396;16.796;2024-02-26T20:34:34;10;7;6
44045;PMS7003;29709;52.396;16.796;2024-02-26T20:37:47;6;5;4
44045;PMS7003;29709;52.396;16.796;2024-02-26T20:41:01;8;6;4
44045;PMS7003;29709;52.396;16.796;2024-02-26T20:44:14;7;6;5
44045;PMS7003;29709;52.396;16.796;2024-02-26T20:47:27;10;6;5
44045;PMS7003;29709;52.396;16.796;2024-02-26T20:50:40;5;4;3
44045;PMS7003;29709;52.396;16.796;2024-02-26T20:53:53;8;6;5
44045;PMS7003;29709;52.396;16.796;2024-02-26T20:57:09;6;6;4
44045;PMS7003;29709;52.396;16.796;2024-02-26T21:00:24;9;6;5
44045;PMS7003;29709;52.396;16.796;2024-02-26T21:03:38;5;4;3
44045;PMS7003;29709;52.396;16.796;2024-02-26T21:06:51;8;7;5
44045;PMS7003;29709;52.396;16.796;2024-02-26T21:10:06;8;6;5